sensor_id;sensor_type;location;lat;lon;timestamp;P1;durP1;ratioP1;P2;durP2;ratioP2
26478;SDS011;14163;-26.142;27.992;2023-08-17T00:00:07;24.20;;;19.40;;
26478;SDS011;14163;-26.142;27.992;2023-08-17T00:02:39;26.60;;;20.90;;
26478;SDS011;14163;-26.142;27.992;2023-08-17T00:05:09;21.57;;;19.23;;
26478;SDS011;14163;-26.142;27.992;2023-08-17T00:07:38;21.93;;;19.07;;
26478;SDS011;14163;-26.142;27.992;2023-08-17T00:10:07;24.10;;;18.87;;
26478;SDS011;14163;-26.142;27.992;2023-08-17T00:12:36;24.23;;;20.27;;
26478;SDS011;14163;-26.142;27.992;2023-08-17T00:15:07;22.00;;;18.63;;
26478;SDS011;14163;-26.142;27.992;2023-08-17T00:17:37;22.83;;;18.27;;
26478;SDS011;14163;-26.142;27.992;2023-08-17T00:20:06;21.10;;;18.13;;
26478;SDS011;14163;-26.142;27.992;2023-08-17T00:22:37;25.80;;;19.37;;
26478;SDS011;14163;-26.142;27.992;2023-08-17T00:25:06;24.13;;;19.47;;
26478;SDS011;14163;-26.142;27.992;2023-08-17T00:27:35;21.87;;;18.60;;
26478;SDS011;14163;-26.142;27.992;2023-08-17T00:30:05;23.67;;;19.67;;
26478;SDS011;14163;-26.142;27.992;2023-08-17T00:32:38;21.23;;;17.93;;
26478;SDS011;14163;-26.142;27.992;2023-08-17T00:35:07;23.70;;;19.60;;
26478;SDS011;14163;-26.142;27.992;2023-08-17T00:37:36;21.10;;;18.07;;
26478;SDS011;14163;-26.142;27.992;2023-08-17T00:40:06;22.00;;;19.20;;
26478;SDS011;14163;-26.142;27.992;2023-08-17T00:42:36;23.53;;;18.83;;
26478;SDS011;14163;-26.142;27.992;2023-08-17T00:45:05;19.97;;;17.50;;
26478;SDS011;14163;-26.142;27.992;2023-08-17T00:47:38;22.43;;;18.90;;
26478;SDS011;14163;-26.142;27.992;2023-08-17T00:50:07;24.17;;;18.63;;
26478;SDS011;14163;-26.142;27.992;2023-08-17T00:52:38;22.73;;;17.63;;
26478;SDS011;14163;-26.142;27.992;2023-08-17T00:55:08;26.50;;;20.13;;
26478;SDS011;14163;-26.142;27.992;2023-08-17T00:57:39;23.30;;;18.27;;
26478;SDS011;14163;-26.142;27.992;2023-08-17T01:00:12;21.53;;;18.90;;
26478;SDS011;14163;-26.142;27.992;2023-08-17T01:02:42;27.80;;;20.77;;
26478;SDS011;14163;-26.142;27.992;2023-08-17T01:05:11;24.47;;;18.77;;
26478;SDS011;14163;-26.142;27.992;2023-08-17T01:07:40;25.50;;;19.30;;
26478;SDS011;14163;-26.142;27.992;2023-08-17T01:10:09;25.60;;;19.87;;
26478;SDS011;14163;-26.142;27.992;2023-08-17T01:12:41;26.83;;;19.97;;
26478;SDS011;14163;-26.142;27.992;2023-08-17T01:15:19;22.27;;;19.17;;
26478;SDS011;14163;-26.142;27.992;2023-08-17T01:17:56;23.93;;;19.80;;
26478;SDS011;14163;-26.142;27.992;2023-08-17T01:20:31;25.53;;;19.63;;
26478;SDS011;14163;-26.142;27.992;2023-08-17T01:23:03;25.23;;;20.53;;
26478;SDS011;14163;-26.142;27.992;2023-08-17T01:25:33;54.87;;;21.90;;
26478;SDS011;14163;-26.142;27.992;2023-08-17T01:28:02;26.93;;;21.20;;
26478;SDS011;14163;-26.142;27.992;2023-08-17T01:30:33;30.00;;;22.23;;
26478;SDS011;14163;-26.142;27.992;2023-08-17T01:33:09;24.47;;;21.27;;
26478;SDS011;14163;-26.142;27.992;2023-08-17T01:35:43;28.03;;;20.53;;
26478;SDS011;14163;-26.142;27.992;2023-08-17T01:38:18;27.77;;;21.27;;
26478;SDS011;14163;-26.142;27.992;2023-08-17T01:40:50;25.60;;;20.20;;
26478;SDS011;14163;-26.142;27.992;2023-08-17T01:43:21;24.83;;;20.20;;
26478;SDS011;14163;-26.142;27.992;2023-08-17T01:45:50;25.00;;;20.17;;
26478;SDS011;14163;-26.142;27.992;2023-08-17T01:48:19;25.93;;;21.83;;
26478;SDS011;14163;-26.142;27.992;2023-08-17T01:50:48;25.00;;;20.00;;
26478;SDS011;14163;-26.142;27.992;2023-08-17T01:53:19;22.57;;;19.23;;
26478;SDS011;14163;-26.142;27.992;2023-08-17T01:55:48;25.20;;;20.80;;
26478;SDS011;14163;-26.142;27.992;2023-08-17T01:58:17;22.13;;;19.73;;
26478;SDS011;14163;-26.142;27.992;2023-08-17T02:00:47;25.30;;;20.03;;
26478;SDS011;14163;-26.142;27.992;2023-08-17T02:03:16;24.60;;;18.80;;
26478;SDS011;14163;-26.142;27.992;2023-08-17T02:05:45;23.77;;;18.60;;
26478;SDS011;14163;-26.142;27.992;2023-08-17T02:08:15;25.27;;;20.53;;
26478;SDS011;14163;-26.142;27.992;2023-08-17T02:10:46;30.00;;;20.90;;
26478;SDS011;14163;-26.142;27.992;2023-08-17T02:13:15;24.73;;;19.60;;
26478;SDS011;14163;-26.142;27.992;2023-08-17T02:15:44;21.73;;;19.23;;
26478;SDS011;14163;-26.142;27.992;2023-08-17T02:18:14;22.43;;;18.93;;
26478;SDS011;14163;-26.142;27.992;2023-08-17T02:20:43;22.97;;;19.00;;
26478;SDS011;14163;-26.142;27.992;2023-08-17T02:23:12;24.63;;;19.10;;
26478;SDS011;14163;-26.142;27.992;2023-08-17T02:25:41;23.73;;;18.63;;
26478;SDS011;14163;-26.142;27.992;2023-08-17T02:28:12;28.00;;;19.93;;
26478;SDS011;14163;-26.142;27.992;2023-08-17T02:30:41;22.83;;;19.10;;
26478;SDS011;14163;-26.142;27.992;2023-08-17T02:33:10;25.60;;;21.47;;
26478;SDS011;14163;-26.142;27.992;2023-08-17T02:35:40;26.60;;;21.77;;
26478;SDS011;14163;-26.142;27.992;2023-08-17T02:38:09;24.90;;;18.90;;
26478;SDS011;14163;-26.142;27.992;2023-08-17T02:40:38;21.70;;;19.40;;
26478;SDS011;14163;-26.142;27.992;2023-08-17T02:43:07;22.70;;;19.53;;
26478;SDS011;14163;-26.142;27.992;2023-08-17T02:45:38;21.93;;;18.97;;
26478;SDS011;14163;-26.142;27.992;2023-08-17T02:48:07;25.60;;;20.37;;
26478;SDS011;14163;-26.142;27.992;2023-08-17T02:50:36;21.50;;;18.43;;
26478;SDS011;14163;-26.142;27.992;2023-08-17T02:53:05;24.07;;;19.97;;
26478;SDS011;14163;-26.142;27.992;2023-08-17T02:55:34;23.20;;;20.37;;
26478;SDS011;14163;-26.142;27.992;2023-08-17T02:58:03;24.43;;;20.13;;
26478;SDS011;14163;-26.142;27.992;2023-08-17T03:00:32;23.00;;;20.10;;
26478;SDS011;14163;-26.142;27.992;2023-08-17T03:03:04;24.83;;;19.60;;
26478;SDS011;14163;-26.142;27.992;2023-08-17T03:05:33;23.03;;;18.87;;
26478;SDS011;14163;-26.142;27.992;2023-08-17T03:08:02;21.60;;;19.10;;
26478;SDS011;14163;-26.142;27.992;2023-08-17T03:10:32;26.20;;;20.47;;
26478;SDS011;14163;-26.142;27.992;2023-08-17T03:13:01;23.90;;;20.40;;
26478;SDS011;14163;-26.142;27.992;2023-08-17T03:15:30;24.97;;;19.80;;
26478;SDS011;14163;-26.142;27.992;2023-08-17T03:17:59;25.67;;;20.27;;
26478;SDS011;14163;-26.142;27.992;2023-08-17T03:20:30;23.40;;;20.20;;
26478;SDS011;14163;-26.142;27.992;2023-08-17T03:22:59;24.97;;;20.90;;
26478;SDS011;14163;-26.142;27.992;2023-08-17T03:25:31;24.30;;;20.17;;
26478;SDS011;14163;-26.142;27.992;2023-08-17T03:28:00;22.97;;;19.80;;
26478;SDS011;14163;-26.142;27.992;2023-08-17T03:30:30;25.73;;;21.33;;
26478;SDS011;14163;-26.142;27.992;2023-08-17T03:32:59;23.57;;;20.00;;
26478;SDS011;14163;-26.142;27.992;2023-08-17T03:35:30;27.73;;;22.07;;
26478;SDS011;14163;-26.142;27.992;2023-08-17T03:38:00;23.57;;;20.33;;
26478;SDS011;14163;-26.142;27.992;2023-08-17T03:40:29;24.50;;;20.70;;
26478;SDS011;14163;-26.142;27.992;2023-08-17T03:42:58;25.50;;;21.03;;
26478;SDS011;14163;-26.142;27.992;2023-08-17T03:45:27;24.57;;;20.50;;
26478;SDS011;14163;-26.142;27.992;2023-08-17T03:47:57;24.37;;;20.90;;
26478;SDS011;14163;-26.142;27.992;2023-08-17T03:50:26;24.40;;;19.97;;
26478;SDS011;14163;-26.142;27.992;2023-08-17T03:52:57;22.33;;;19.93;;
26478;SDS011;14163;-26.142;27.992;2023-08-17T03:55:26;27.00;;;20.57;;
26478;SDS011;14163;-26.142;27.992;2023-08-17T03:57:55;25.67;;;21.00;;
26478;SDS011;14163;-26.142;27.992;2023-08-17T04:00:24;25.73;;;20.67;;
26478;SDS011;14163;-26.142;27.992;2023-08-17T04:02:53;26.93;;;22.10;;
26478;SDS011;14163;-26.142;27.992;2023-08-17T04:05:22;27.53;;;20.63;;
26478;SDS011;14163;-26.142;27.992;2023-08-17T04:07:51;25.43;;;20.43;;
26478;SDS011;14163;-26.142;27.992;2023-08-17T04:10:22;25.17;;;21.67;;
26478;SDS011;14163;-26.142;27.992;2023-08-17T04:12:51;30.87;;;20.53;;
26478;SDS011;14163;-26.142;27.992;2023-08-17T04:15:20;22.93;;;19.80;;
26478;SDS011;14163;-26.142;27.992;2023-08-17T04:17:49;24.13;;;20.10;;
26478;SDS011;14163;-26.142;27.992;2023-08-17T04:20:18;27.10;;;21.93;;
26478;SDS011;14163;-26.142;27.992;2023-08-17T04:22:47;23.50;;;19.93;;
26478;SDS011;14163;-26.142;27.992;2023-08-17T04:25:16;24.83;;;20.17;;
26478;SDS011;14163;-26.142;27.992;2023-08-17T04:27:47;27.57;;;21.13;;
26478;SDS011;14163;-26.142;27.992;2023-08-17T04:30:16;28.00;;;21.77;;
26478;SDS011;14163;-26.142;27.992;2023-08-17T04:32:45;25.60;;;20.83;;
26478;SDS011;14163;-26.142;27.992;2023-08-17T04:35:18;23.57;;;20.20;;
26478;SDS011;14163;-26.142;27.992;2023-08-17T04:37:47;24.97;;;21.70;;
26478;SDS011;14163;-26.142;27.992;2023-08-17T04:40:16;29.80;;;21.03;;
26478;SDS011;14163;-26.142;27.992;2023-08-17T04:42:47;24.17;;;21.00;;
26478;SDS011;14163;-26.142;27.992;2023-08-17T04:45:16;25.50;;;21.47;;
26478;SDS011;14163;-26.142;27.992;2023-08-17T04:47:45;28.17;;;20.70;;
26478;SDS011;14163;-26.142;27.992;2023-08-17T04:50:14;29.10;;;23.20;;
26478;SDS011;14163;-26.142;27.992;2023-08-17T04:52:43;35.93;;;24.20;;
26478;SDS011;14163;-26.142;27.992;2023-08-17T04:55:13;33.87;;;25.20;;
26478;SDS011;14163;-26.142;27.992;2023-08-17T04:57:42;34.93;;;27.10;;
26478;SDS011;14163;-26.142;27.992;2023-08-17T05:00:15;34.57;;;26.00;;
26478;SDS011;14163;-26.142;27.992;2023-08-17T05:02:51;31.70;;;23.23;;
26478;SDS011;14163;-26.142;27.992;2023-08-17T05:05:20;29.67;;;23.00;;
26478;SDS011;14163;-26.142;27.992;2023-08-17T05:07:49;30.10;;;23.77;;
26478;SDS011;14163;-26.142;27.992;2023-08-17T05:10:18;31.40;;;23.83;;
26478;SDS011;14163;-26.142;27.992;2023-08-17T05:12:47;34.43;;;24.83;;
26478;SDS011;14163;-26.142;27.992;2023-08-17T05:15:17;28.83;;;23.63;;
26478;SDS011;14163;-26.142;27.992;2023-08-17T05:17:47;31.93;;;24.03;;
26478;SDS011;14163;-26.142;27.992;2023-08-17T05:20:16;28.53;;;21.90;;
26478;SDS011;14163;-26.142;27.992;2023-08-17T05:22:46;34.43;;;27.47;;
26478;SDS011;14163;-26.142;27.992;2023-08-17T05:25:15;42.43;;;31.63;;
26478;SDS011;14163;-26.142;27.992;2023-08-17T05:27:44;35.53;;;28.43;;
26478;SDS011;14163;-26.142;27.992;2023-08-17T05:30:14;33.20;;;27.97;;
26478;SDS011;14163;-26.142;27.992;2023-08-17T05:32:45;33.10;;;25.67;;
26478;SDS011;14163;-26.142;27.992;2023-08-17T05:35:14;35.67;;;26.63;;
26478;SDS011;14163;-26.142;27.992;2023-08-17T05:37:43;35.80;;;25.20;;
26478;SDS011;14163;-26.142;27.992;2023-08-17T05:40:12;29.27;;;24.60;;
26478;SDS011;14163;-26.142;27.992;2023-08-17T05:42:42;31.33;;;25.10;;
26478;SDS011;14163;-26.142;27.992;2023-08-17T05:45:11;35.87;;;26.00;;
26478;SDS011;14163;-26.142;27.992;2023-08-17T05:47:43;36.00;;;26.20;;
26478;SDS011;14163;-26.142;27.992;2023-08-17T05:50:12;31.93;;;24.83;;
26478;SDS011;14163;-26.142;27.992;2023-08-17T05:52:41;35.70;;;27.17;;
26478;SDS011;14163;-26.142;27.992;2023-08-17T05:55:10;39.03;;;27.53;;
26478;SDS011;14163;-26.142;27.992;2023-08-17T05:57:39;37.80;;;28.40;;
26478;SDS011;14163;-26.142;27.992;2023-08-17T06:00:08;39.33;;;27.23;;
26478;SDS011;14163;-26.142;27.992;2023-08-17T06:02:39;36.67;;;26.80;;
26478;SDS011;14163;-26.142;27.992;2023-08-17T06:05:09;38.77;;;28.10;;
26478;SDS011;14163;-26.142;27.992;2023-08-17T06:07:39;45.77;;;29.03;;
26478;SDS011;14163;-26.142;27.992;2023-08-17T06:10:09;34.87;;;27.07;;
26478;SDS011;14163;-26.142;27.992;2023-08-17T06:12:39;35.07;;;27.53;;
26478;SDS011;14163;-26.142;27.992;2023-08-17T06:15:08;37.63;;;28.97;;
26478;SDS011;14163;-26.142;27.992;2023-08-17T06:17:37;37.63;;;28.13;;
26478;SDS011;14163;-26.142;27.992;2023-08-17T06:20:10;38.50;;;28.83;;
26478;SDS011;14163;-26.142;27.992;2023-08-17T06:22:40;31.10;;;24.90;;
26478;SDS011;14163;-26.142;27.992;2023-08-17T06:25:09;38.93;;;29.17;;
26478;SDS011;14163;-26.142;27.992;2023-08-17T06:27:41;37.83;;;27.97;;
26478;SDS011;14163;-26.142;27.992;2023-08-17T06:30:11;37.30;;;29.83;;
26478;SDS011;14163;-26.142;27.992;2023-08-17T06:32:40;37.77;;;28.40;;
26478;SDS011;14163;-26.142;27.992;2023-08-17T06:35:11;37.43;;;29.50;;
26478;SDS011;14163;-26.142;27.992;2023-08-17T06:37:40;42.67;;;30.00;;
26478;SDS011;14163;-26.142;27.992;2023-08-17T06:40:09;42.40;;;28.53;;
26478;SDS011;14163;-26.142;27.992;2023-08-17T06:42:38;40.97;;;31.50;;
26478;SDS011;14163;-26.142;27.992;2023-08-17T06:45:07;36.40;;;27.30;;
26478;SDS011;14163;-26.142;27.992;2023-08-17T06:47:37;37.77;;;27.20;;
26478;SDS011;14163;-26.142;27.992;2023-08-17T06:50:07;38.77;;;28.30;;
26478;SDS011;14163;-26.142;27.992;2023-08-17T06:52:38;35.60;;;28.90;;
26478;SDS011;14163;-26.142;27.992;2023-08-17T06:55:07;39.77;;;29.40;;
26478;SDS011;14163;-26.142;27.992;2023-08-17T06:57:38;40.47;;;28.50;;
26478;SDS011;14163;-26.142;27.992;2023-08-17T07:00:09;41.30;;;27.00;;
26478;SDS011;14163;-26.142;27.992;2023-08-17T07:02:39;40.77;;;28.53;;
26478;SDS011;14163;-26.142;27.992;2023-08-17T07:05:08;35.87;;;25.87;;
26478;SDS011;14163;-26.142;27.992;2023-08-17T07:07:38;36.33;;;28.20;;
26478;SDS011;14163;-26.142;27.992;2023-08-17T07:10:08;37.70;;;28.00;;
26478;SDS011;14163;-26.142;27.992;2023-08-17T07:12:38;36.60;;;28.40;;
26478;SDS011;14163;-26.142;27.992;2023-08-17T07:15:07;40.93;;;30.27;;
26478;SDS011;14163;-26.142;27.992;2023-08-17T07:17:37;43.43;;;28.30;;
26478;SDS011;14163;-26.142;27.992;2023-08-17T07:20:06;36.43;;;27.83;;
26478;SDS011;14163;-26.142;27.992;2023-08-17T07:22:39;34.53;;;26.70;;
26478;SDS011;14163;-26.142;27.992;2023-08-17T07:25:08;36.37;;;25.30;;
26478;SDS011;14163;-26.142;27.992;2023-08-17T07:27:37;35.57;;;27.30;;
26478;SDS011;14163;-26.142;27.992;2023-08-17T07:30:06;33.77;;;25.37;;
26478;SDS011;14163;-26.142;27.992;2023-08-17T07:32:36;32.90;;;25.47;;
26478;SDS011;14163;-26.142;27.992;2023-08-17T07:35:05;28.93;;;23.67;;
26478;SDS011;14163;-26.142;27.992;2023-08-17T07:37:35;29.97;;;25.03;;
26478;SDS011;14163;-26.142;27.992;2023-08-17T07:40:06;34.27;;;26.57;;
26478;SDS011;14163;-26.142;27.992;2023-08-17T07:42:36;35.43;;;25.80;;
26478;SDS011;14163;-26.142;27.992;2023-08-17T07:45:05;35.50;;;25.47;;
26478;SDS011;14163;-26.142;27.992;2023-08-17T07:47:35;39.83;;;24.20;;
26478;SDS011;14163;-26.142;27.992;2023-08-17T07:50:04;33.13;;;23.73;;
26478;SDS011;14163;-26.142;27.992;2023-08-17T07:52:34;33.00;;;23.33;;
26478;SDS011;14163;-26.142;27.992;2023-08-17T07:55:03;33.80;;;25.37;;
26478;SDS011;14163;-26.142;27.992;2023-08-17T07:57:34;33.20;;;24.90;;
26478;SDS011;14163;-26.142;27.992;2023-08-17T08:00:03;31.07;;;23.20;;
26478;SDS011;14163;-26.142;27.992;2023-08-17T08:02:33;30.33;;;23.80;;
26478;SDS011;14163;-26.142;27.992;2023-08-17T08:05:02;33.00;;;24.50;;
26478;SDS011;14163;-26.142;27.992;2023-08-17T08:07:44;33.67;;;25.10;;
26478;SDS011;14163;-26.142;27.992;2023-08-17T08:10:16;31.80;;;23.33;;
26478;SDS011;14163;-26.142;27.992;2023-08-17T08:12:45;34.27;;;24.10;;
26478;SDS011;14163;-26.142;27.992;2023-08-17T08:15:14;31.87;;;22.97;;
26478;SDS011;14163;-26.142;27.992;2023-08-17T08:17:43;30.37;;;23.93;;
26478;SDS011;14163;-26.142;27.992;2023-08-17T08:20:12;28.50;;;24.47;;
26478;SDS011;14163;-26.142;27.992;2023-08-17T08:22:41;31.73;;;25.20;;
26478;SDS011;14163;-26.142;27.992;2023-08-17T08:25:10;32.13;;;25.40;;
26478;SDS011;14163;-26.142;27.992;2023-08-17T08:27:42;35.60;;;28.03;;
26478;SDS011;14163;-26.142;27.992;2023-08-17T08:30:11;33.30;;;25.57;;
26478;SDS011;14163;-26.142;27.992;2023-08-17T08:32:40;115.00;;;66.07;;
26478;SDS011;14163;-26.142;27.992;2023-08-17T08:35:09;90.17;;;57.03;;
26478;SDS011;14163;-26.142;27.992;2023-08-17T08:37:38;115.73;;;67.97;;
26478;SDS011;14163;-26.142;27.992;2023-08-17T08:40:10;39.50;;;32.80;;
26478;SDS011;14163;-26.142;27.992;2023-08-17T08:42:42;40.80;;;32.07;;
26478;SDS011;14163;-26.142;27.992;2023-08-17T08:45:11;35.70;;;29.00;;
26478;SDS011;14163;-26.142;27.992;2023-08-17T08:47:40;34.60;;;26.43;;
26478;SDS011;14163;-26.142;27.992;2023-08-17T08:50:13;33.70;;;26.03;;
26478;SDS011;14163;-26.142;27.992;2023-08-17T08:52:48;39.83;;;28.97;;
26478;SDS011;14163;-26.142;27.992;2023-08-17T08:55:22;32.77;;;25.20;;
26478;SDS011;14163;-26.142;27.992;2023-08-17T08:57:56;25.63;;;22.00;;
26478;SDS011;14163;-26.142;27.992;2023-08-17T09:00:26;28.43;;;22.23;;
26478;SDS011;14163;-26.142;27.992;2023-08-17T09:02:55;27.77;;;24.87;;
26478;SDS011;14163;-26.142;27.992;2023-08-17T09:05:25;26.30;;;22.90;;
26478;SDS011;14163;-26.142;27.992;2023-08-17T09:07:55;32.43;;;25.97;;
26478;SDS011;14163;-26.142;27.992;2023-08-17T09:10:27;28.20;;;24.33;;
26478;SDS011;14163;-26.142;27.992;2023-08-17T09:12:58;36.33;;;26.00;;
26478;SDS011;14163;-26.142;27.992;2023-08-17T09:15:27;32.23;;;25.27;;
26478;SDS011;14163;-26.142;27.992;2023-08-17T09:17:56;29.57;;;24.10;;
26478;SDS011;14163;-26.142;27.992;2023-08-17T09:20:36;27.83;;;24.83;;
26478;SDS011;14163;-26.142;27.992;2023-08-17T09:23:09;28.97;;;24.73;;
26478;SDS011;14163;-26.142;27.992;2023-08-17T09:25:40;32.80;;;24.97;;
26478;SDS011;14163;-26.142;27.992;2023-08-17T09:28:13;37.03;;;25.40;;
26478;SDS011;14163;-26.142;27.992;2023-08-17T09:30:49;31.40;;;24.77;;
26478;SDS011;14163;-26.142;27.992;2023-08-17T09:33:19;26.77;;;22.00;;
26478;SDS011;14163;-26.142;27.992;2023-08-17T09:35:49;29.57;;;24.07;;
26478;SDS011;14163;-26.142;27.992;2023-08-17T09:38:19;28.70;;;23.90;;
26478;SDS011;14163;-26.142;27.992;2023-08-17T09:40:48;26.30;;;23.50;;
26478;SDS011;14163;-26.142;27.992;2023-08-17T09:43:19;31.60;;;25.57;;
26478;SDS011;14163;-26.142;27.992;2023-08-17T09:45:48;28.37;;;24.73;;
26478;SDS011;14163;-26.142;27.992;2023-08-17T09:48:18;27.13;;;24.33;;
26478;SDS011;14163;-26.142;27.992;2023-08-17T09:50:47;28.30;;;21.97;;
26478;SDS011;14163;-26.142;27.992;2023-08-17T09:53:17;24.23;;;21.63;;
26478;SDS011;14163;-26.142;27.992;2023-08-17T09:55:47;24.37;;;20.40;;
26478;SDS011;14163;-26.142;27.992;2023-08-17T09:58:16;23.10;;;20.03;;
26478;SDS011;14163;-26.142;27.992;2023-08-17T10:00:47;24.27;;;20.17;;
26478;SDS011;14163;-26.142;27.992;2023-08-17T10:03:17;21.30;;;19.00;;
26478;SDS011;14163;-26.142;27.992;2023-08-17T10:05:47;23.23;;;20.73;;
26478;SDS011;14163;-26.142;27.992;2023-08-17T10:08:21;23.70;;;21.30;;
26478;SDS011;14163;-26.142;27.992;2023-08-17T10:10:50;26.30;;;22.13;;
26478;SDS011;14163;-26.142;27.992;2023-08-17T10:13:21;24.80;;;21.27;;
26478;SDS011;14163;-26.142;27.992;2023-08-17T10:16:01;22.83;;;20.47;;
26478;SDS011;14163;-26.142;27.992;2023-08-17T10:18:35;21.90;;;19.73;;
26478;SDS011;14163;-26.142;27.992;2023-08-17T10:21:13;22.47;;;19.77;;
26478;SDS011;14163;-26.142;27.992;2023-08-17T10:23:49;22.03;;;18.63;;
26478;SDS011;14163;-26.142;27.992;2023-08-17T10:26:18;21.23;;;18.97;;
26478;SDS011;14163;-26.142;27.992;2023-08-17T10:28:49;20.87;;;18.67;;
26478;SDS011;14163;-26.142;27.992;2023-08-17T10:31:21;20.57;;;18.23;;
26478;SDS011;14163;-26.142;27.992;2023-08-17T10:33:50;22.27;;;17.80;;
26478;SDS011;14163;-26.142;27.992;2023-08-17T10:36:19;19.20;;;17.50;;
26478;SDS011;14163;-26.142;27.992;2023-08-17T10:39:02;19.83;;;17.83;;
26478;SDS011;14163;-26.142;27.992;2023-08-17T10:41:46;20.43;;;18.13;;
26478;SDS011;14163;-26.142;27.992;2023-08-17T10:44:17;20.40;;;18.30;;
26478;SDS011;14163;-26.142;27.992;2023-08-17T10:49:50;18.80;;;16.93;;
26478;SDS011;14163;-26.142;27.992;2023-08-17T10:52:26;19.60;;;17.73;;
26478;SDS011;14163;-26.142;27.992;2023-08-17T10:54:59;19.27;;;17.57;;
26478;SDS011;14163;-26.142;27.992;2023-08-17T10:57:31;19.40;;;17.50;;
26478;SDS011;14163;-26.142;27.992;2023-08-17T11:02:54;19.30;;;17.30;;
26478;SDS011;14163;-26.142;27.992;2023-08-17T11:05:37;20.07;;;17.80;;
26478;SDS011;14163;-26.142;27.992;2023-08-17T11:08:07;18.80;;;17.10;;
26478;SDS011;14163;-26.142;27.992;2023-08-17T11:10:40;19.20;;;17.20;;
26478;SDS011;14163;-26.142;27.992;2023-08-17T11:13:09;20.40;;;18.20;;
26478;SDS011;14163;-26.142;27.992;2023-08-17T11:15:38;22.00;;;18.43;;
26478;SDS011;14163;-26.142;27.992;2023-08-17T11:18:13;20.30;;;18.20;;
26478;SDS011;14163;-26.142;27.992;2023-08-17T11:20:42;18.00;;;16.30;;
26478;SDS011;14163;-26.142;27.992;2023-08-17T11:23:12;19.47;;;17.50;;
26478;SDS011;14163;-26.142;27.992;2023-08-17T11:25:41;20.10;;;18.20;;
26478;SDS011;14163;-26.142;27.992;2023-08-17T11:28:10;18.03;;;16.13;;
26478;SDS011;14163;-26.142;27.992;2023-08-17T11:30:42;21.47;;;18.43;;
26478;SDS011;14163;-26.142;27.992;2023-08-17T11:33:13;18.73;;;17.00;;
26478;SDS011;14163;-26.142;27.992;2023-08-17T11:35:42;18.40;;;16.80;;
26478;SDS011;14163;-26.142;27.992;2023-08-17T11:38:11;21.03;;;18.77;;
26478;SDS011;14163;-26.142;27.992;2023-08-17T11:40:41;18.97;;;16.93;;
26478;SDS011;14163;-26.142;27.992;2023-08-17T11:43:10;18.87;;;16.93;;
26478;SDS011;14163;-26.142;27.992;2023-08-17T11:45:39;19.37;;;17.47;;
26478;SDS011;14163;-26.142;27.992;2023-08-17T11:48:08;19.20;;;17.17;;
26478;SDS011;14163;-26.142;27.992;2023-08-17T11:50:39;18.57;;;16.80;;
26478;SDS011;14163;-26.142;27.992;2023-08-17T11:53:08;19.10;;;17.27;;
26478;SDS011;14163;-26.142;27.992;2023-08-17T11:55:37;18.00;;;16.27;;
26478;SDS011;14163;-26.142;27.992;2023-08-17T11:58:07;17.90;;;15.97;;
26478;SDS011;14163;-26.142;27.992;2023-08-17T12:00:36;16.60;;;15.10;;
26478;SDS011;14163;-26.142;27.992;2023-08-17T12:03:12;17.20;;;15.40;;
26478;SDS011;14163;-26.142;27.992;2023-08-17T12:05:45;17.27;;;15.53;;
26478;SDS011;14163;-26.142;27.992;2023-08-17T12:08:14;18.53;;;16.83;;
26478;SDS011;14163;-26.142;27.992;2023-08-17T12:10:43;18.77;;;17.00;;
26478;SDS011;14163;-26.142;27.992;2023-08-17T12:13:13;18.40;;;16.20;;
26478;SDS011;14163;-26.142;27.992;2023-08-17T12:15:42;16.77;;;15.27;;
26478;SDS011;14163;-26.142;27.992;2023-08-17T12:18:11;16.43;;;14.87;;
26478;SDS011;14163;-26.142;27.992;2023-08-17T12:20:40;18.93;;;15.77;;
26478;SDS011;14163;-26.142;27.992;2023-08-17T12:23:11;17.40;;;14.70;;
26478;SDS011;14163;-26.142;27.992;2023-08-17T12:25:40;16.60;;;14.80;;
26478;SDS011;14163;-26.142;27.992;2023-08-17T12:28:12;18.67;;;14.80;;
26478;SDS011;14163;-26.142;27.992;2023-08-17T12:30:41;15.47;;;13.90;;
26478;SDS011;14163;-26.142;27.992;2023-08-17T12:33:11;15.93;;;12.63;;
26478;SDS011;14163;-26.142;27.992;2023-08-17T12:35:40;14.60;;;13.10;;
26478;SDS011;14163;-26.142;27.992;2023-08-17T12:38:11;14.17;;;12.83;;
26478;SDS011;14163;-26.142;27.992;2023-08-17T12:40:40;16.70;;;14.40;;
26478;SDS011;14163;-26.142;27.992;2023-08-17T12:43:09;15.70;;;14.23;;
26478;SDS011;14163;-26.142;27.992;2023-08-17T12:45:40;15.10;;;13.60;;
26478;SDS011;14163;-26.142;27.992;2023-08-17T12:48:15;14.77;;;13.07;;
26478;SDS011;14163;-26.142;27.992;2023-08-17T12:50:47;17.40;;;13.40;;
26478;SDS011;14163;-26.142;27.992;2023-08-17T12:53:18;14.03;;;12.63;;
26478;SDS011;14163;-26.142;27.992;2023-08-17T12:55:49;15.00;;;13.40;;
26478;SDS011;14163;-26.142;27.992;2023-08-17T12:58:20;16.67;;;12.90;;
26478;SDS011;14163;-26.142;27.992;2023-08-17T13:00:50;20.17;;;13.07;;
26478;SDS011;14163;-26.142;27.992;2023-08-17T13:03:20;13.13;;;11.17;;
26478;SDS011;14163;-26.142;27.992;2023-08-17T13:05:49;13.37;;;11.97;;
26478;SDS011;14163;-26.142;27.992;2023-08-17T13:08:20;15.57;;;12.13;;
26478;SDS011;14163;-26.142;27.992;2023-08-17T13:10:48;17.13;;;12.30;;
26478;SDS011;14163;-26.142;27.992;2023-08-17T13:13:18;12.90;;;11.57;;
26478;SDS011;14163;-26.142;27.992;2023-08-17T13:15:47;16.40;;;12.30;;
26478;SDS011;14163;-26.142;27.992;2023-08-17T13:18:16;15.50;;;12.33;;
26478;SDS011;14163;-26.142;27.992;2023-08-17T13:20:45;12.20;;;10.93;;
26478;SDS011;14163;-26.142;27.992;2023-08-17T13:23:15;13.20;;;11.87;;
26478;SDS011;14163;-26.142;27.992;2023-08-17T13:25:46;18.40;;;12.03;;
26478;SDS011;14163;-26.142;27.992;2023-08-17T13:28:15;13.77;;;12.37;;
26478;SDS011;14163;-26.142;27.992;2023-08-17T13:30:44;11.43;;;10.43;;
26478;SDS011;14163;-26.142;27.992;2023-08-17T13:33:14;14.37;;;11.63;;
26478;SDS011;14163;-26.142;27.992;2023-08-17T13:35:43;15.33;;;11.50;;
26478;SDS011;14163;-26.142;27.992;2023-08-17T13:38:13;14.50;;;11.33;;
26478;SDS011;14163;-26.142;27.992;2023-08-17T13:40:42;13.93;;;11.00;;
26478;SDS011;14163;-26.142;27.992;2023-08-17T13:43:12;13.33;;;12.03;;
26478;SDS011;14163;-26.142;27.992;2023-08-17T13:45:42;12.20;;;11.10;;
26478;SDS011;14163;-26.142;27.992;2023-08-17T13:48:11;12.30;;;10.60;;
26478;SDS011;14163;-26.142;27.992;2023-08-17T13:50:40;11.40;;;10.30;;
26478;SDS011;14163;-26.142;27.992;2023-08-17T13:53:10;12.63;;;11.30;;
26478;SDS011;14163;-26.142;27.992;2023-08-17T13:55:39;13.47;;;12.17;;
26478;SDS011;14163;-26.142;27.992;2023-08-17T13:58:08;12.80;;;11.60;;
26478;SDS011;14163;-26.142;27.992;2023-08-17T14:00:39;14.90;;;11.50;;
26478;SDS011;14163;-26.142;27.992;2023-08-17T14:03:09;13.33;;;10.73;;
26478;SDS011;14163;-26.142;27.992;2023-08-17T14:05:38;12.80;;;11.50;;
26478;SDS011;14163;-26.142;27.992;2023-08-17T14:08:07;13.80;;;11.20;;
26478;SDS011;14163;-26.142;27.992;2023-08-17T14:10:36;13.50;;;11.80;;
26478;SDS011;14163;-26.142;27.992;2023-08-17T14:13:05;13.43;;;11.67;;
26478;SDS011;14163;-26.142;27.992;2023-08-17T14:15:35;13.73;;;12.30;;
26478;SDS011;14163;-26.142;27.992;2023-08-17T14:18:07;12.53;;;11.33;;